createdAt,value
2018-09-13T00:01:03.626Z,55.50
2018-09-13T00:03:37.953Z,55.70
2018-09-13T00:06:12.291Z,55.80
2018-09-13T00:08:46.730Z,56.00
2018-09-13T00:11:21.101Z,56.00
2018-09-13T00:13:55.500Z,56.10
2018-09-13T00:16:29.827Z,56.40
2018-09-13T00:19:04.217Z,56.50
2018-09-13T00:21:38.540Z,56.70
2018-09-13T00:24:12.858Z,56.80
2018-09-13T00:26:47.178Z,56.80
2018-09-13T00:29:21.489Z,57.00
2018-09-13T00:31:55.855Z,57.00
2018-09-13T00:34:30.306Z,57.10
2018-09-13T00:37:04.737Z,57.20
2018-09-13T00:39:39.122Z,57.20
2018-09-13T00:42:13.465Z,57.20
2018-09-13T00:44:47.844Z,57.40
2018-09-13T00:47:22.178Z,57.50
2018-09-13T00:49:56.512Z,57.50
2018-09-13T00:52:30.877Z,57.50
2018-09-13T00:55:05.181Z,57.60
2018-09-13T00:57:39.629Z,57.60
2018-09-13T01:00:13.979Z,57.60
2018-09-13T01:02:48.332Z,57.70
2018-09-13T01:05:22.733Z,57.80
2018-09-13T01:07:57.070Z,57.80
2018-09-13T01:10:31.423Z,57.80
2018-09-13T01:13:05.939Z,57.90
2018-09-13T01:15:40.298Z,57.90
2018-09-13T01:18:14.646Z,57.90
2018-09-13T01:20:49.045Z,58.00
2018-09-13T01:23:23.402Z,58.00
2018-09-13T01:25:57.869Z,58.00
2018-09-13T01:28:32.205Z,58.00
2018-09-13T01:31:06.562Z,58.00
2018-09-13T01:33:40.896Z,57.90
2018-09-13T01:36:15.270Z,57.80
2018-09-13T01:38:49.642Z,57.70
2018-09-13T01:41:24.107Z,57.70
2018-09-13T01:43:58.491Z,57.80
2018-09-13T01:46:33.434Z,57.80
2018-09-13T01:49:07.809Z,57.70
2018-09-13T01:51:42.092Z,57.70
2018-09-13T01:54:16.465Z,57.80
2018-09-13T01:56:51.224Z,57.70
2018-09-13T01:59:25.570Z,57.80
2018-09-13T02:02:00.037Z,57.70
2018-09-13T02:04:34.445Z,57.70
2018-09-13T02:07:08.873Z,57.50
2018-09-13T02:09:43.206Z,57.50
2018-09-13T02:12:17.564Z,57.50
2018-09-13T02:14:52.257Z,57.50
2018-09-13T02:17:26.605Z,57.60
2018-09-13T02:20:00.946Z,57.50
2018-09-13T02:22:35.336Z,57.50
2018-09-13T02:25:09.661Z,57.30
2018-09-13T02:27:44.029Z,57.50
2018-09-13T02:30:18.398Z,58.20
2018-09-13T02:32:53.217Z,57.50
2018-09-13T02:35:27.577Z,57.50
2018-09-13T02:38:02.125Z,57.40
2018-09-13T02:40:36.485Z,57.50
2018-09-13T02:43:10.866Z,57.60
2018-09-13T02:45:45.201Z,57.70
2018-09-13T02:48:19.529Z,57.70
2018-09-13T02:50:54.674Z,57.70
2018-09-13T02:53:29.033Z,57.70
2018-09-13T02:56:03.725Z,57.90
2018-09-13T02:58:38.083Z,57.90
2018-09-13T03:01:12.469Z,57.90
2018-09-13T03:03:46.845Z,57.80
2018-09-13T03:06:21.176Z,57.90
2018-09-13T03:08:55.520Z,57.90
2018-09-13T03:11:29.881Z,58.00
2018-09-13T03:14:04.275Z,58.10
2018-09-13T03:16:39.331Z,58.20
2018-09-13T03:19:13.682Z,58.40
2018-09-13T03:21:48.043Z,58.50
2018-09-13T03:24:22.397Z,58.50
2018-09-13T03:26:57.785Z,58.60
2018-09-13T03:29:32.277Z,58.60
2018-09-13T03:32:06.589Z,58.60
2018-09-13T03:34:44.979Z,58.60
2018-09-13T03:37:20.897Z,58.70
2018-09-13T03:39:55.272Z,58.80
2018-09-13T03:42:29.607Z,58.90
2018-09-13T03:45:04.023Z,59.00
2018-09-13T03:47:38.394Z,58.90
2018-09-13T03:50:12.884Z,58.90
2018-09-13T03:52:47.286Z,58.90
2018-09-13T03:55:21.621Z,58.90
2018-09-13T03:57:55.946Z,59.00
2018-09-13T04:00:30.292Z,59.00
2018-09-13T04:03:04.647Z,58.90
2018-09-13T04:05:39.053Z,59.50
2018-09-13T04:08:13.527Z,59.40
2018-09-13T04:10:47.825Z,58.80
2018-09-13T04:13:22.210Z,58.70
2018-09-13T04:15:56.523Z,58.80
2018-09-13T04:18:30.870Z,58.80
2018-09-13T04:21:05.295Z,58.80
2018-09-13T04:23:39.609Z,58.70
2018-09-13T04:26:13.937Z,58.80
2018-09-13T04:28:48.890Z,58.70
2018-09-13T04:31:23.314Z,58.80
2018-09-13T04:33:57.631Z,58.60
2018-09-13T04:36:31.969Z,58.60
2018-09-13T04:39:08.008Z,58.60
2018-09-13T04:41:42.329Z,58.60
2018-09-13T04:44:16.630Z,58.50
2018-09-13T04:46:51.004Z,58.50
2018-09-13T04:49:25.341Z,58.50
2018-09-13T04:51:59.677Z,59.20
2018-09-13T04:54:34.027Z,58.70
2018-09-13T04:57:08.382Z,58.80
2018-09-13T04:59:42.714Z,58.70
2018-09-13T05:02:17.087Z,58.70
2018-09-13T05:04:51.430Z,58.60
2018-09-13T05:07:25.763Z,58.60
2018-09-13T05:10:00.117Z,58.60
2018-09-13T05:12:34.475Z,58.60
2018-09-13T05:15:08.822Z,58.60
2018-09-13T05:17:43.150Z,58.60
2018-09-13T05:20:23.931Z,58.80
2018-09-13T05:22:58.303Z,58.90
2018-09-13T05:25:32.779Z,59.00
2018-09-13T05:28:07.227Z,58.90
2018-09-13T05:30:41.659Z,58.80
2018-09-13T05:33:16.128Z,58.90
2018-09-13T05:35:50.679Z,58.80
2018-09-13T05:38:26.123Z,58.80
2018-09-13T05:41:00.854Z,58.80
2018-09-13T05:43:35.234Z,58.80
2018-09-13T05:46:09.567Z,58.80
2018-09-13T05:48:43.887Z,58.80
2018-09-13T05:51:18.237Z,59.00
2018-09-13T05:53:53.605Z,59.00
2018-09-13T05:56:28.141Z,59.00
2018-09-13T05:59:02.744Z,59.10
2018-09-13T06:01:37.439Z,59.40
2018-09-13T06:04:12.126Z,59.30
2018-09-13T06:06:46.718Z,59.30
2018-09-13T06:09:21.278Z,59.40
2018-09-13T06:11:56.825Z,59.50
2018-09-13T06:14:31.323Z,59.50
2018-09-13T06:17:06.149Z,59.40
2018-09-13T06:19:41.574Z,59.30
2018-09-13T06:22:16.226Z,59.40
2018-09-13T06:24:50.827Z,59.50
2018-09-13T06:27:25.365Z,59.60
2018-09-13T06:30:00.312Z,60.00
2018-09-13T06:32:34.702Z,60.40
2018-09-13T06:35:09.141Z,60.70
2018-09-13T06:37:43.797Z,60.70
2018-09-13T06:40:18.233Z,60.70
2018-09-13T06:42:54.634Z,60.90
2018-09-13T06:45:29.031Z,61.30
2018-09-13T06:48:03.342Z,61.70
2018-09-13T06:50:37.656Z,61.90
2018-09-13T06:53:12.388Z,62.00
2018-09-13T06:55:46.807Z,61.90
2018-09-13T06:58:21.170Z,61.60
2018-09-13T07:00:55.565Z,61.10
2018-09-13T07:03:29.877Z,60.60
2018-09-13T07:06:04.205Z,60.90
2018-09-13T07:08:38.602Z,60.90
2018-09-13T07:11:12.937Z,60.50
2018-09-13T07:13:47.466Z,60.80
2018-09-13T07:16:21.774Z,60.80
2018-09-13T07:18:56.098Z,60.70
2018-09-13T07:21:30.442Z,60.60
2018-09-13T07:24:05.145Z,60.20
2018-09-13T07:26:39.480Z,60.00
2018-09-13T07:29:13.861Z,59.90
2018-09-13T07:31:48.198Z,59.80
2018-09-13T07:34:22.497Z,59.50
2018-09-13T07:36:56.808Z,59.10
2018-09-13T07:39:31.230Z,58.70
2018-09-13T07:42:05.641Z,58.40
2018-09-13T07:44:40.059Z,58.10
2018-09-13T07:47:14.422Z,58.50
2018-09-13T07:49:49.031Z,57.90
2018-09-13T07:52:23.287Z,57.80
2018-09-13T07:54:57.849Z,57.70
2018-09-13T07:57:33.714Z,57.60
2018-09-13T08:00:08.342Z,57.50
2018-09-13T08:02:42.666Z,57.20
2018-09-13T08:05:17.036Z,57.10
2018-09-13T08:07:52.309Z,55.80
2018-09-13T08:10:27.306Z,55.80
2018-09-13T08:13:01.695Z,55.50
2018-09-13T08:15:37.047Z,55.30
2018-09-13T08:18:12.981Z,54.50
2018-09-13T08:20:48.089Z,54.40
2018-09-13T08:23:22.445Z,54.50
2018-09-13T08:25:56.967Z,54.60
2018-09-13T08:28:31.321Z,54.40
2018-09-13T08:31:05.613Z,54.00
2018-09-13T08:33:40.007Z,53.90
2018-09-13T08:36:15.233Z,53.70
2018-09-13T08:38:49.565Z,53.40
2018-09-13T08:41:25.773Z,53.30
2018-09-13T08:44:00.820Z,53.30
2018-09-13T08:46:35.930Z,52.90
2018-09-13T08:49:11.702Z,52.40
2018-09-13T08:51:49.341Z,52.20
2018-09-13T08:54:23.689Z,52.10
2018-09-13T08:56:59.094Z,51.70
2018-09-13T08:59:34.477Z,51.70
2018-09-13T09:02:09.022Z,51.40
2018-09-13T09:04:45.046Z,51.10
2018-09-13T09:07:19.752Z,51.20
2018-09-13T09:09:54.130Z,51.10
2018-09-13T09:12:28.500Z,50.60
2018-09-13T09:15:02.826Z,49.60
2018-09-13T09:17:37.141Z,48.50
2018-09-13T09:20:11.437Z,48.10
2018-09-13T09:22:45.738Z,48.40
2018-09-13T09:25:20.042Z,48.50
2018-09-13T09:27:54.366Z,48.70
2018-09-13T09:30:28.726Z,49.10
2018-09-13T09:33:03.075Z,49.50
2018-09-13T09:35:37.402Z,49.60
2018-09-13T09:38:11.707Z,49.60
2018-09-13T09:40:46.097Z,49.50
2018-09-13T09:43:20.449Z,49.50
2018-09-13T09:45:54.766Z,49.20
2018-09-13T09:48:29.037Z,49.20
2018-09-13T09:51:03.375Z,48.90
2018-09-13T09:53:37.990Z,48.70
2018-09-13T09:56:12.311Z,48.40
2018-09-13T09:58:46.618Z,47.90
2018-09-13T10:01:26.966Z,47.50
2018-09-13T10:04:01.429Z,46.70
2018-09-13T10:06:35.722Z,45.90
2018-09-13T10:09:10.222Z,45.60
2018-09-13T10:11:44.468Z,45.00
2018-09-13T10:14:18.881Z,44.40
2018-09-13T10:16:58.435Z,44.20
2018-09-13T10:19:37.906Z,44.30
2018-09-13T10:22:17.333Z,44.20
2018-09-13T10:24:56.825Z,44.60
2018-09-13T10:27:36.265Z,44.50
2018-09-13T10:30:15.668Z,44.50
2018-09-13T10:32:55.229Z,43.60
2018-09-13T10:35:34.710Z,43.80
2018-09-13T10:38:14.256Z,43.70
2018-09-13T10:40:53.723Z,43.70
2018-09-13T10:43:33.176Z,43.10
2018-09-13T10:46:40.306Z,43.30
2018-09-13T10:49:19.746Z,41.90
2018-09-13T10:52:03.134Z,42.90
2018-09-13T10:54:41.448Z,42.20
2018-09-13T10:57:21.075Z,42.40
2018-09-13T10:59:55.357Z,41.80
2018-09-13T11:02:29.745Z,42.60
2018-09-13T11:05:04.102Z,42.80
2018-09-13T11:07:38.434Z,42.00
2018-09-13T11:10:12.879Z,42.20
2018-09-13T11:12:50.399Z,41.90
2018-09-13T11:15:33.830Z,42.10
2018-09-13T11:18:08.256Z,42.00
2018-09-13T11:20:42.575Z,42.20
2018-09-13T11:23:17.062Z,41.50
2018-09-13T11:25:51.487Z,40.70
2018-09-13T11:28:25.834Z,41.60
2018-09-13T11:31:02.528Z,40.40
2018-09-13T11:33:36.904Z,40.70
2018-09-13T11:36:11.298Z,40.70
2018-09-13T11:38:45.954Z,41.20
2018-09-13T11:41:20.330Z,40.40
2018-09-13T11:43:54.824Z,40.80
2018-09-13T11:46:29.162Z,40.30
2018-09-13T11:49:03.520Z,40.00
2018-09-13T11:51:37.907Z,40.80
2018-09-13T11:54:12.206Z,40.40
2018-09-13T11:56:46.489Z,39.70
2018-09-13T11:59:21.109Z,40.60
2018-09-13T12:01:55.430Z,39.90
2018-09-13T12:04:29.686Z,39.90
2018-09-13T12:07:04.069Z,39.60
2018-09-13T12:09:38.452Z,40.20
2018-09-13T12:12:12.711Z,39.50
2018-09-13T12:14:47.050Z,40.30
2018-09-13T12:17:21.348Z,39.50
2018-09-13T12:19:55.607Z,39.50
2018-09-13T12:22:30.026Z,38.80
2018-09-13T12:25:04.316Z,39.00
2018-09-13T12:27:38.660Z,39.00
2018-09-13T12:30:12.923Z,40.10
2018-09-13T12:32:47.246Z,39.10
2018-09-13T12:35:21.535Z,39.00
2018-09-13T12:37:55.841Z,38.80
2018-09-13T12:40:30.166Z,39.10
2018-09-13T12:43:04.498Z,38.90
2018-09-13T12:45:38.853Z,39.40
2018-09-13T12:48:13.122Z,38.10
2018-09-13T12:50:47.478Z,38.70
2018-09-13T12:53:21.786Z,38.70
2018-09-13T12:55:56.638Z,38.10
2018-09-13T12:58:30.986Z,37.90
2018-09-13T13:01:05.330Z,37.90
2018-09-13T13:03:39.684Z,38.10
2018-09-13T13:06:14.075Z,38.20
2018-09-13T13:08:48.469Z,38.10
2018-09-13T13:11:22.773Z,37.90
2018-09-13T13:13:57.114Z,37.80
2018-09-13T13:16:31.474Z,38.00
2018-09-13T13:19:05.850Z,37.60
2018-09-13T13:21:40.781Z,37.40
2018-09-13T13:24:15.085Z,37.70
2018-09-13T13:26:50.347Z,37.70
2018-09-13T13:29:24.658Z,37.60
2018-09-13T13:31:58.964Z,37.70
2018-09-13T13:34:33.303Z,38.00
2018-09-13T13:37:07.646Z,38.20
2018-09-13T13:39:41.938Z,38.00
2018-09-13T13:42:16.358Z,38.10
2018-09-13T13:44:50.682Z,37.40
2018-09-13T13:47:24.996Z,37.50
2018-09-13T13:49:59.387Z,37.90
2018-09-13T13:52:33.710Z,38.10
2018-09-13T13:55:08.047Z,38.50
2018-09-13T13:57:42.427Z,38.70
2018-09-13T14:00:16.760Z,37.40
2018-09-13T14:02:51.041Z,36.90
2018-09-13T14:05:25.379Z,37.00
2018-09-13T14:07:59.722Z,37.80
2018-09-13T14:10:34.040Z,37.80
2018-09-13T14:13:08.403Z,37.90
2018-09-13T14:15:42.758Z,38.10
2018-09-13T14:18:17.138Z,38.60
2018-09-13T14:20:51.516Z,39.10
2018-09-13T14:23:25.800Z,39.10
2018-09-13T14:26:00.094Z,39.20
2018-09-13T14:28:34.405Z,39.30
2018-09-13T14:31:08.712Z,39.80
2018-09-13T14:33:43.037Z,39.10
2018-09-13T14:36:17.437Z,39.40
2018-09-13T14:38:51.730Z,39.10
2018-09-13T14:41:26.111Z,38.70
2018-09-13T14:44:00.495Z,39.00
2018-09-13T14:46:35.472Z,39.20
2018-09-13T14:49:09.770Z,39.20
2018-09-13T14:51:44.066Z,39.10
2018-09-13T14:54:18.387Z,38.90
2018-09-13T14:56:52.743Z,38.80
2018-09-13T14:59:27.167Z,39.50
2018-09-13T15:02:01.487Z,38.80
2018-09-13T15:04:35.927Z,38.80
2018-09-13T15:07:10.287Z,38.50
2018-09-13T15:09:44.561Z,38.50
2018-09-13T15:12:18.894Z,38.40
2018-09-13T15:14:53.255Z,38.60
2018-09-13T15:17:27.610Z,38.80
2018-09-13T15:20:01.874Z,38.90
2018-09-13T15:22:36.214Z,39.00
2018-09-13T15:25:10.531Z,38.80
2018-09-13T15:27:44.894Z,38.80
2018-09-13T15:30:19.219Z,38.70
2018-09-13T15:32:53.494Z,39.10
2018-09-13T15:35:27.853Z,39.10
2018-09-13T15:38:02.182Z,39.70
2018-09-13T15:40:36.482Z,38.70
2018-09-13T15:43:10.808Z,38.40
2018-09-13T15:45:45.107Z,37.90
2018-09-13T15:48:19.357Z,37.90
2018-09-13T15:50:53.677Z,37.90
2018-09-13T15:53:28.047Z,38.00
2018-09-13T15:56:02.357Z,38.10
2018-09-13T15:58:36.754Z,38.50
2018-09-13T16:01:11.102Z,38.90
2018-09-13T16:03:45.441Z,39.30
2018-09-13T16:06:19.816Z,38.50
2018-09-13T16:08:54.167Z,38.50
2018-09-13T16:11:28.479Z,38.90
2018-09-13T16:14:02.796Z,39.20
2018-09-13T16:16:37.108Z,39.60
2018-09-13T16:19:11.405Z,39.80
2018-09-13T16:21:46.194Z,40.00
2018-09-13T16:24:20.566Z,40.10
2018-09-13T16:26:54.932Z,40.40
2018-09-13T16:29:29.349Z,40.50
2018-09-13T16:32:03.924Z,40.60
2018-09-13T16:34:38.254Z,40.80
2018-09-13T16:37:12.845Z,41.10
2018-09-13T16:39:52.431Z,41.50
2018-09-13T16:42:37.314Z,41.80
2018-09-13T16:45:12.186Z,42.10
2018-09-13T16:47:51.830Z,42.30
2018-09-13T16:50:26.126Z,42.50
2018-09-13T16:53:00.590Z,42.60
2018-09-13T16:55:34.861Z,42.70
2018-09-13T16:58:09.111Z,43.00
2018-09-13T17:00:43.526Z,43.20
2018-09-13T17:03:17.843Z,43.30
2018-09-13T17:05:52.202Z,43.40
2018-09-13T17:08:29.731Z,43.50
2018-09-13T17:11:04.037Z,43.50
2018-09-13T17:13:38.474Z,43.80
2018-09-13T17:16:12.782Z,43.90
2018-09-13T17:18:47.118Z,44.00
2018-09-13T17:21:21.413Z,44.30
2018-09-13T17:23:55.725Z,44.30
2018-09-13T17:26:30.151Z,44.40
2018-09-13T17:29:04.490Z,44.50
2018-09-13T17:31:38.898Z,45.40
2018-09-13T17:34:13.174Z,45.10
2018-09-13T17:36:48.006Z,45.20
2018-09-13T17:39:22.390Z,45.20
2018-09-13T17:41:56.730Z,45.10
2018-09-13T17:44:31.060Z,45.30
2018-09-13T17:47:05.362Z,45.40
2018-09-13T17:49:39.903Z,45.80
2018-09-13T17:52:14.262Z,45.80
2018-09-13T17:54:48.546Z,46.00
2018-09-13T17:57:22.882Z,46.20
2018-09-13T17:59:57.232Z,46.20
2018-09-13T18:02:31.502Z,46.40
2018-09-13T18:05:06.858Z,46.70
2018-09-13T18:07:41.155Z,46.70
2018-09-13T18:10:15.482Z,46.70
2018-09-13T18:12:49.847Z,46.90
2018-09-13T18:15:28.931Z,47.00
2018-09-13T18:18:03.400Z,47.10
2018-09-13T18:20:37.724Z,47.30
2018-09-13T18:23:12.102Z,47.50
2018-09-13T18:25:46.567Z,47.90
2018-09-13T18:28:20.991Z,47.80
2018-09-13T18:33:59.034Z,48.10
2018-09-13T18:36:33.409Z,48.40
2018-09-13T18:39:09.343Z,49.10
2018-09-13T18:41:43.711Z,48.70
2018-09-13T18:44:18.137Z,48.60
2018-09-13T18:46:52.482Z,48.80
2018-09-13T18:49:26.854Z,48.80
2018-09-13T18:52:01.250Z,49.20
2018-09-13T18:54:35.782Z,49.20
2018-09-13T18:57:10.226Z,49.20
2018-09-13T18:59:44.619Z,49.20
2018-09-13T19:02:19.004Z,49.40
2018-09-13T19:04:53.401Z,49.50
2018-09-13T19:07:27.742Z,49.80
2018-09-13T19:10:02.206Z,49.90
2018-09-13T19:12:36.570Z,49.90
2018-09-13T19:15:11.006Z,50.20
2018-09-13T19:17:45.389Z,50.40
2018-09-13T19:20:19.737Z,50.70
2018-09-13T19:22:54.166Z,51.10
2018-09-13T19:25:28.662Z,51.00
2018-09-13T19:28:03.055Z,51.30
2018-09-13T19:30:37.386Z,51.30
2018-09-13T19:33:11.789Z,51.30
2018-09-13T19:35:46.174Z,51.60
2018-09-13T19:38:20.525Z,51.70
2018-09-13T19:40:54.879Z,51.90
2018-09-13T19:43:29.241Z,52.00
2018-09-13T19:46:03.642Z,52.20
2018-09-13T19:48:38.034Z,52.20
2018-09-13T19:51:12.427Z,52.40
2018-09-13T19:53:46.735Z,52.30
2018-09-13T19:56:21.127Z,52.30
2018-09-13T19:58:55.638Z,52.60
2018-09-13T20:01:29.999Z,52.70
2018-09-13T20:04:04.395Z,53.00
2018-09-13T20:06:38.756Z,52.80
2018-09-13T20:09:13.276Z,52.80
2018-09-13T20:11:47.664Z,52.90
2018-09-13T20:14:22.110Z,53.00
2018-09-13T20:16:56.542Z,52.90
2018-09-13T20:19:30.935Z,52.90
2018-09-13T20:22:05.439Z,53.00
2018-09-13T20:24:39.864Z,53.30
2018-09-13T20:27:14.393Z,53.40
2018-09-13T20:29:48.740Z,53.50
2018-09-13T20:32:23.169Z,53.50
2018-09-13T20:34:57.622Z,53.40
2018-09-13T20:37:31.972Z,53.40
2018-09-13T20:40:06.495Z,53.30
2018-09-13T20:42:40.863Z,53.30
2018-09-13T20:45:15.228Z,53.30
2018-09-13T20:47:49.606Z,53.50
2018-09-13T20:50:23.980Z,53.80
2018-09-13T20:52:58.417Z,53.90
2018-09-13T20:55:32.903Z,53.70
2018-09-13T20:58:07.328Z,53.70
2018-09-13T21:00:41.737Z,53.90
2018-09-13T21:03:16.091Z,54.00
2018-09-13T21:05:50.421Z,54.00
2018-09-13T21:08:24.820Z,53.90
2018-09-13T21:10:59.184Z,53.90
2018-09-13T21:13:33.592Z,54.20
2018-09-13T21:16:08.015Z,54.20
2018-09-13T21:18:42.422Z,54.10
2018-09-13T21:21:16.788Z,54.10
2018-09-13T21:23:51.152Z,54.20
2018-09-13T21:26:25.525Z,54.20
2018-09-13T21:28:59.875Z,54.30
2018-09-13T21:31:34.272Z,54.40
2018-09-13T21:34:08.642Z,54.30
2018-09-13T21:36:43.020Z,54.40
2018-09-13T21:39:17.522Z,54.80
2018-09-13T21:41:51.895Z,54.80
2018-09-13T21:44:26.374Z,54.70
2018-09-13T21:47:00.690Z,54.70
2018-09-13T21:49:35.166Z,54.80
2018-09-13T21:52:09.517Z,54.80
2018-09-13T21:54:43.831Z,55.20
2018-09-13T21:57:18.180Z,55.30
2018-09-13T21:59:52.549Z,55.20
2018-09-13T22:02:26.925Z,55.10
2018-09-13T22:05:01.310Z,55.00
2018-09-13T22:07:36.086Z,55.00
2018-09-13T22:10:10.442Z,55.20
2018-09-13T22:12:44.786Z,55.40
2018-09-13T22:15:19.177Z,55.50
2018-09-13T22:17:53.511Z,55.40
2018-09-13T22:20:27.918Z,55.50
2018-09-13T22:23:02.290Z,55.60
2018-09-13T22:25:36.673Z,55.60
2018-09-13T22:28:11.018Z,55.60
2018-09-13T22:30:45.388Z,55.90
2018-09-13T22:33:19.758Z,55.90
2018-09-13T22:35:54.129Z,55.80
2018-09-13T22:38:28.509Z,55.60
2018-09-13T22:41:02.846Z,55.70
2018-09-13T22:43:42.441Z,55.70
2018-09-13T22:46:16.762Z,55.80
2018-09-13T22:48:51.117Z,55.90
2018-09-13T22:51:25.827Z,55.70
2018-09-13T22:54:00.162Z,55.60
2018-09-13T22:56:34.518Z,55.70
2018-09-13T22:59:08.841Z,55.70
2018-09-13T23:01:43.231Z,55.90
2018-09-13T23:04:17.563Z,55.80
2018-09-13T23:06:52.126Z,55.90
2018-09-13T23:09:26.516Z,55.80
2018-09-13T23:12:00.849Z,55.70
2018-09-13T23:14:35.186Z,55.80
2018-09-13T23:17:09.544Z,55.80
2018-09-13T23:19:43.896Z,56.00
2018-09-13T23:22:18.229Z,55.70
2018-09-13T23:24:52.571Z,56.00
2018-09-13T23:27:26.941Z,56.10
2018-09-13T23:30:01.370Z,56.00
2018-09-13T23:32:35.714Z,56.00
2018-09-13T23:35:10.078Z,56.10
2018-09-13T23:37:44.414Z,56.20
2018-09-13T23:40:19.068Z,56.80
2018-09-13T23:42:53.330Z,56.10
2018-09-13T23:45:28.102Z,56.20
2018-09-13T23:48:02.435Z,56.20
2018-09-13T23:50:36.774Z,56.20
2018-09-13T23:53:11.562Z,56.10
2018-09-13T23:55:45.940Z,56.20
2018-09-13T23:58:20.298Z,56.10
